Jonestown, Texas
Current Conditions -  °F | °C
As of 11:35 AM on Thursday 30 Oct 2014 (Local Time) from KRYW Reporting Station
Clear Clear  
Wind Chill: 71°   Ceiling: Unl
Heat Index: 71°   Visibility: 10mi
Dew Point: 55°   Wind: 3mph
Humidity: 57%   Direction: 130°SE
Pressure: 30.18"   Gusts: NA
Location:  30.4521°N, 97.9683°W
Report Text: KRYW 301635Z AUTO 13003KT 10SM CLR 22/13 A3018 RMK AO2 T02170129
Loading
Personal Weather Stations






























Interactive Weather Map New forecast layout! Learn more

10-Day Weather Forecast

Advertisements
Track Severe Weather on mobile